Nearby METAR Reports

KLWM - Lawrence,MA, USA
Distance from station: NE 12mi, 19km
Updated: Fri, 15-Dec-2017 3:54pm EST
Overcast
Overcast
 Wind from S
Wind: S 3 mph , 6 km/h
Temperature: 27°F , -3°C
Dew Point: 10°F , -12°C
Humidity: 50%
Barometer: 29.97 inHg , 1014.9 hPa
Clouds: Overcast
Visibility: 10 miles , 16 km
Cloud details: Overcast 8000 ft
2017/12/15 20:54 KLWM 152054Z 17003KT 10SM OVC080 M03/M12 A2997 RMK AO2 SLP151 T10281117 56018
KBED - Bedford,MA, USA
Distance from station: SSE 12mi, 19km
Updated: Fri, 15-Dec-2017 3:56pm EST
Overcast
Overcast
 Wind from S
Wind: S 3 mph , 6 km/h
Temperature: 25°F , -4°C
Dew Point: 10°F , -12°C
Humidity: 54%
Barometer: 29.94 inHg , 1013.9 hPa
Clouds: Overcast
Visibility: 10 miles , 16 km
Cloud details: Overcast 10000 ft
2017/12/15 20:56 KBED 152056Z 18003KT 10SM OVC100 M04/M12 A2994 RMK AO2 SLP156 T10441117 56021

Metar display script from Saratoga-Weather.org